Time;durP1;ratioP1;P1;durP2;ratioP2;P2;SDS_P1;SDS_P2;PMS_P1;PMS_P2;Temp;Humidity;BMP_temperature;BMP_pressure;BME280_temperature;BME280_humidity;BME280_pressure;Samples;Min_cycle;Max_cycle;Signal;HPM_P1;HPM_P2
2021/01/01 00:01:42;;;;;;;59.35;31.05;;;5.10;71.40;;;;;;5032131;28;20896;-72
2021/01/01 00:04:08;;;;;;;62.72;31.75;;;4.90;71.20;;;;;;5030758;28;20939;-73
2021/01/01 00:06:35;;;;;;;65.13;33.73;;;4.90;72.90;;;;;;5030950;28;20486;-71
2021/01/01 00:09:01;;;;;;;65.22;33.10;;;4.80;73.50;;;;;;5030756;28;20787;-72
2021/01/01 00:11:26;;;;;;;68.10;34.80;;;4.80;75.20;;;;;;5030713;28;20387;-72
2021/01/01 00:13:52;;;;;;;70.43;36.28;;;4.80;73.90;;;;;;5030853;28;20429;-72
2021/01/01 00:16:18;;;;;;;72.28;36.95;;;4.80;74.70;;;;;;5029538;28;20387;-71
2021/01/01 00:18:44;;;;;;;70.93;36.67;;;4.70;76.10;;;;;;5030401;28;20391;-73
2021/01/01 00:21:10;;;;;;;69.43;36.20;;;4.70;77.80;;;;;;5030448;28;21028;-71
2021/01/01 00:23:38;;;;;;;73.35;37.00;;;4.90;74.80;;;;;;5030728;28;20760;-72
2021/01/01 00:26:14;;;;;;;73.57;36.88;;;4.90;73.80;;;;;;5030653;28;20383;-72
2021/01/01 00:28:43;;;;;;;72.25;38.35;;;4.90;72.80;;;;;;5030476;28;20391;-71
2021/01/01 00:31:22;;;;;;;81.03;38.58;;;5.00;73.10;;;;;;5030177;28;20375;-72
2021/01/01 00:33:49;;;;;;;77.25;38.20;;;4.90;71.10;;;;;;5030563;28;20386;-72
2021/01/01 00:36:16;;;;;;;80.65;39.10;;;4.90;72.60;;;;;;5030326;28;20398;-72
2021/01/01 00:38:51;;;;;;;91.03;41.75;;;4.90;71.90;;;;;;5029960;28;20407;-72
2021/01/01 00:41:34;;;;;;;86.30;40.88;;;4.80;73.10;;;;;;5029939;28;20409;-72
2021/01/01 00:44:00;;;;;;;89.15;42.28;;;4.70;74.80;;;;;;5031154;28;20441;-73
2021/01/01 00:46:27;;;;;;;88.80;42.35;;;4.70;76.10;;;;;;5032165;28;20414;-73
2021/01/01 00:48:53;;;;;;;92.63;42.83;;;4.70;77.50;;;;;;5031365;28;20717;-73
2021/01/01 00:51:29;;;;;;;94.47;45.22;;;4.70;75.60;;;;;;5031858;28;20378;-71
2021/01/01 00:53:56;;;;;;;92.13;45.42;;;4.70;74.70;;;;;;5032223;28;20423;-71
2021/01/01 00:56:24;;;;;;;96.50;46.88;;;4.70;74.00;;;;;;5032093;28;20703;-72
2021/01/01 00:58:50;;;;;;;96.90;48.80;;;4.70;74.00;;;;;;5031562;28;20386;-74
2021/01/01 01:01:22;;;;;;;100.88;48.38;;;4.70;75.00;;;;;;5031494;28;20389;-72
2021/01/01 01:03:48;;;;;;;90.65;44.00;;;4.70;72.60;;;;;;5032143;28;20394;-73
2021/01/01 01:06:13;;;;;;;89.43;44.20;;;4.70;70.80;;;;;;5030554;28;20387;-73
2021/01/01 01:08:39;;;;;;;89.28;44.10;;;4.80;70.70;;;;;;5030099;28;20405;-73
2021/01/01 01:11:04;;;;;;;88.63;43.53;;;4.70;70.80;;;;;;5030260;28;20760;-73
2021/01/01 01:13:30;;;;;;;98.17;47.57;;;4.70;70.80;;;;;;5030521;28;20452;-73
2021/01/01 01:15:55;;;;;;;91.60;43.77;;;4.70;71.80;;;;;;5030794;28;20415;-73
2021/01/01 01:18:21;;;;;;;89.03;44.37;;;4.70;71.90;;;;;;5030441;28;20426;-73
2021/01/01 01:20:46;;;;;;;94.22;45.05;;;4.70;72.50;;;;;;5030713;28;20434;-73
2021/01/01 01:23:12;;;;;;;98.00;46.35;;;4.70;73.10;;;;;;5035621;28;20419;-72
2021/01/01 01:25:38;;;;;;;101.83;47.63;;;4.70;73.30;;;;;;5035362;28;20383;-72
2021/01/01 01:28:03;;;;;;;108.93;50.37;;;4.80;74.50;;;;;;5038898;28;20376;-71
2021/01/01 01:30:29;;;;;;;110.65;53.22;;;4.80;74.90;;;;;;5037601;28;20925;-72
2021/01/01 01:32:54;;;;;;;117.32;55.60;;;4.80;75.60;;;;;;5021120;28;20895;-72
2021/01/01 01:35:21;;;;;;;115.50;56.75;;;4.90;74.10;;;;;;5038513;28;20383;-73
2021/01/01 01:37:47;;;;;;;114.40;55.10;;;4.90;73.50;;;;;;5038996;28;21026;-73
2021/01/01 01:40:13;;;;;;;116.88;55.97;;;4.90;73.70;;;;;;5038758;28;20473;-71
2021/01/01 01:42:38;;;;;;;108.20;53.70;;;4.90;74.90;;;;;;5038157;28;20406;-73
2021/01/01 01:45:06;;;;;;;113.77;51.77;;;4.90;72.80;;;;;;5038109;28;20441;-72
2021/01/01 01:47:32;;;;;;;98.63;46.58;;;4.80;72.00;;;;;;5033555;28;20383;-71
2021/01/01 01:49:57;;;;;;;99.50;46.58;;;4.70;71.40;;;;;;5033436;28;20383;-73
2021/01/01 01:52:23;;;;;;;102.85;48.22;;;4.60;71.90;;;;;;5033623;28;20891;-72
2021/01/01 01:54:53;;;;;;;95.95;47.83;;;4.60;73.60;;;;;;5033626;28;20470;-73
2021/01/01 01:57:19;;;;;;;89.70;44.22;;;4.60;73.50;;;;;;5033471;28;20937;-72
2021/01/01 01:59:48;;;;;;;87.53;42.10;;;4.60;73.00;;;;;;5033013;28;20391;-73
2021/01/01 02:02:13;;;;;;;86.40;44.20;;;4.60;72.00;;;;;;5033233;28;20750;-73
2021/01/01 02:04:39;;;;;;;92.83;44.87;;;4.50;73.20;;;;;;5033411;28;20394;-72
2021/01/01 02:07:05;;;;;;;89.93;44.10;;;4.50;74.10;;;;;;5033385;28;20390;-72
2021/01/01 02:09:31;;;;;;;95.25;45.30;;;4.50;74.10;;;;;;5033063;28;20386;-73
2021/01/01 02:11:56;;;;;;;86.90;41.93;;;4.40;75.90;;;;;;5033143;28;20385;-73
2021/01/01 02:14:22;;;;;;;81.87;40.90;;;4.50;73.30;;;;;;5033186;28;20391;-73
2021/01/01 02:16:48;;;;;;;88.65;43.20;;;4.50;73.20;;;;;;5033136;28;20394;-72
2021/01/01 02:19:13;;;;;;;88.15;44.10;;;4.50;73.90;;;;;;5032723;28;20399;-73
2021/01/01 02:21:42;;;;;;;84.63;42.60;;;4.40;74.40;;;;;;5033303;28;20737;-73
2021/01/01 02:24:11;;;;;;;88.10;44.40;;;4.30;76.70;;;;;;5032903;28;20729;-73
2021/01/01 02:26:37;;;;;;;84.88;42.03;;;4.30;78.80;;;;;;5032930;28;20383;-73
2021/01/01 02:29:03;;;;;;;83.72;42.55;;;4.50;74.40;;;;;;5032634;28;20470;-73
2021/01/01 02:31:29;;;;;;;91.28;43.20;;;4.30;74.40;;;;;;5032921;28;20941;-72
2021/01/01 02:33:54;;;;;;;82.20;42.80;;;4.40;76.40;;;;;;5032786;28;20659;-73
2021/01/01 02:36:20;;;;;;;81.90;41.20;;;4.40;74.30;;;;;;5032716;28;20466;-72
2021/01/01 02:38:46;;;;;;;84.43;42.13;;;4.40;74.50;;;;;;5031482;28;20400;-73
2021/01/01 02:41:12;;;;;;;83.15;42.58;;;4.50;74.60;;;;;;5032420;28;20399;-73
2021/01/01 02:43:38;;;;;;;78.72;41.35;;;4.40;74.10;;;;;;5032736;28;20384;-72
2021/01/01 02:46:03;;;;;;;82.90;41.42;;;4.50;74.40;;;;;;5032460;28;20387;-73
2021/01/01 02:48:29;;;;;;;78.13;40.40;;;4.50;72.70;;;;;;5032566;28;20384;-72
2021/01/01 02:50:55;;;;;;;80.90;41.17;;;4.50;72.90;;;;;;5032332;28;20491;-73
2021/01/01 02:53:20;;;;;;;78.37;39.80;;;4.50;74.40;;;;;;5032401;28;20409;-73
2021/01/01 02:55:46;;;;;;;78.53;40.20;;;4.50;74.50;;;;;;5032389;28;20391;-72
2021/01/01 02:58:12;;;;;;;78.10;39.83;;;4.50;75.20;;;;;;5032219;28;20417;-71
2021/01/01 03:00:39;;;;;;;79.60;41.93;;;4.50;75.50;;;;;;5031933;28;20380;-72
2021/01/01 03:03:05;;;;;;;74.50;38.42;;;4.60;73.20;;;;;;5032160;28;20399;-71
2021/01/01 03:05:31;;;;;;;76.68;40.22;;;4.70;71.20;;;;;;5032236;28;20921;-73
2021/01/01 03:07:56;;;;;;;74.90;39.13;;;4.70;70.80;;;;;;5032166;28;20413;-72
2021/01/01 03:10:22;;;;;;;75.67;39.30;;;4.60;71.70;;;;;;5031887;28;20468;-72
2021/01/01 03:12:48;;;;;;;83.00;41.40;;;4.30;74.90;;;;;;5031991;28;20383;-72
2021/01/01 03:15:15;;;;;;;85.40;42.25;;;4.10;78.50;;;;;;5031920;28;20478;-72
2021/01/01 03:17:41;;;;;;;80.53;41.45;;;4.00;81.70;;;;;;5031976;28;20405;-72
2021/01/01 03:20:07;;;;;;;84.00;41.17;;;4.00;84.40;;;;;;5031462;28;20383;-72
2021/01/01 03:22:33;;;;;;;72.05;39.30;;;4.00;86.00;;;;;;5031862;28;20922;-73
2021/01/01 03:24:58;;;;;;;81.27;41.13;;;4.10;87.20;;;;;;5031639;28;20388;-71
2021/01/01 03:27:24;;;;;;;80.67;41.20;;;4.10;85.60;;;;;;5031767;28;20394;-71
2021/01/01 03:29:50;;;;;;;69.10;37.60;;;4.40;82.40;;;;;;5031280;28;20391;-72
2021/01/01 03:32:15;;;;;;;71.45;38.45;;;4.70;73.60;;;;;;5031415;28;20399;-73
2021/01/01 03:34:41;;;;;;;75.88;39.75;;;4.80;72.60;;;;;;5031492;28;20891;-72
2021/01/01 03:37:07;;;;;;;68.83;38.40;;;4.80;71.00;;;;;;5013578;28;20392;-72
2021/01/01 03:39:33;;;;;;;67.93;37.00;;;4.60;74.30;;;;;;5031188;28;20883;-73
2021/01/01 03:41:58;;;;;;;71.97;37.50;;;4.90;70.10;;;;;;5031247;28;20403;-72
2021/01/01 03:44:24;;;;;;;75.47;37.57;;;5.00;68.40;;;;;;5031217;28;20395;-73
2021/01/01 03:46:49;;;;;;;69.80;36.70;;;5.00;67.50;;;;;;5031142;28;20395;-72
2021/01/01 03:49:15;;;;;;;73.00;36.93;;;5.00;65.60;;;;;;5030685;28;20430;-73
2021/01/01 03:51:40;;;;;;;73.37;37.10;;;4.90;66.30;;;;;;5031242;28;20434;-73
2021/01/01 03:54:06;;;;;;;70.45;37.17;;;4.90;67.20;;;;;;5030960;28;20565;-72
2021/01/01 03:56:31;;;;;;;65.78;35.00;;;4.80;68.90;;;;;;5031108;28;20383;-72
2021/01/01 03:58:57;;;;;;;72.22;36.78;;;4.80;68.20;;;;;;5030817;28;20390;-72
2021/01/01 04:01:22;;;;;;;68.63;36.33;;;4.80;68.80;;;;;;5030925;28;20444;-73
2021/01/01 04:03:48;;;;;;;66.53;35.97;;;4.70;69.90;;;;;;5030928;28;20464;-72
2021/01/01 04:06:13;;;;;;;76.70;37.97;;;4.70;70.30;;;;;;5030911;28;20874;-72
2021/01/01 04:08:39;;;;;;;66.60;35.87;;;4.80;70.60;;;;;;5030848;28;20387;-72
2021/01/01 04:11:05;;;;;;;74.67;39.30;;;4.70;71.10;;;;;;5030751;28;20387;-72
2021/01/01 04:13:30;;;;;;;76.78;38.88;;;4.50;72.60;;;;;;5030898;28;20383;-72
2021/01/01 04:15:56;;;;;;;72.50;38.05;;;4.40;76.10;;;;;;5030989;28;20730;-73
2021/01/01 04:18:21;;;;;;;68.30;39.00;;;4.30;75.90;;;;;;5030899;28;20915;-72
2021/01/01 04:20:47;;;;;;;73.40;39.43;;;4.20;77.00;;;;;;5030634;28;20431;-72
2021/01/01 04:23:13;;;;;;;69.00;37.10;;;4.40;79.40;;;;;;5030671;28;20403;-72
2021/01/01 04:25:38;;;;;;;63.92;36.22;;;4.70;72.60;;;;;;5030679;28;20399;-72
2021/01/01 04:28:04;;;;;;;71.50;37.97;;;4.80;71.00;;;;;;5030629;28;20379;-72
2021/01/01 04:30:30;;;;;;;66.53;35.70;;;4.80;70.50;;;;;;5030436;28;20391;-73
2021/01/01 04:32:55;;;;;;;69.35;36.28;;;4.90;70.20;;;;;;5030629;28;20393;-72
2021/01/01 04:35:21;;;;;;;68.95;36.55;;;4.90;70.40;;;;;;5030786;28;20391;-73
2021/01/01 04:37:46;;;;;;;60.42;34.83;;;4.80;70.70;;;;;;5030645;28;20397;-72
2021/01/01 04:40:13;;;;;;;64.13;35.20;;;4.80;70.10;;;;;;5030232;28;20395;-72
2021/01/01 04:42:39;;;;;;;69.32;35.55;;;4.80;69.30;;;;;;5030439;28;20414;-71
2021/01/01 04:45:05;;;;;;;66.17;34.90;;;4.70;68.90;;;;;;5030368;28;20417;-72
2021/01/01 04:47:32;;;;;;;62.97;33.58;;;4.70;69.20;;;;;;5030644;28;20401;-72
2021/01/01 04:50:00;;;;;;;60.78;32.90;;;4.60;69.70;;;;;;5030157;28;20441;-72
2021/01/01 04:52:32;;;;;;;67.40;36.00;;;4.60;70.70;;;;;;5030389;28;20769;-72
2021/01/01 04:55:02;;;;;;;57.67;33.40;;;4.60;71.40;;;;;;5030537;28;20449;-73
2021/01/01 04:57:28;;;;;;;61.95;35.00;;;4.60;70.40;;;;;;5030467;28;20379;-72
2021/01/01 04:59:54;;;;;;;64.13;35.07;;;4.40;71.20;;;;;;5030453;28;20799;-73
2021/01/01 05:02:20;;;;;;;64.72;35.10;;;4.40;73.10;;;;;;5033142;28;20468;-73
2021/01/01 05:04:46;;;;;;;65.83;34.77;;;4.50;73.00;;;;;;5034876;28;20416;-73
2021/01/01 05:07:19;;;;;;;61.05;33.83;;;4.50;72.20;;;;;;5034790;28;20393;-72
2021/01/01 05:09:45;;;;;;;63.08;34.33;;;4.50;71.90;;;;;;5016699;28;20383;-72
2021/01/01 05:12:12;;;;;;;67.18;33.92;;;4.40;73.30;;;;;;5034409;28;20470;-72
2021/01/01 05:14:39;;;;;;;62.80;34.83;;;4.50;72.40;;;;;;5034897;28;20391;-73
2021/01/01 05:17:05;;;;;;;62.78;33.53;;;4.50;72.30;;;;;;5034375;28;20485;-74
2021/01/01 05:19:41;;;;;;;63.33;33.35;;;4.40;72.50;;;;;;5034178;28;20391;-73
2021/01/01 05:22:08;;;;;;;63.60;35.47;;;4.40;73.20;;;;;;5034097;28;20899;-73
2021/01/01 05:24:45;;;;;;;60.95;33.63;;;4.40;72.30;;;;;;5034560;28;20445;-72
2021/01/01 05:27:15;;;;;;;61.97;34.53;;;4.40;72.70;;;;;;5034094;28;20856;-73
2021/01/01 05:29:50;;;;;;;63.50;34.57;;;4.20;74.30;;;;;;5033576;28;20883;-74
2021/01/01 05:32:28;;;;;;;70.55;37.70;;;4.20;76.20;;;;;;5034033;28;20791;-72
2021/01/01 05:34:54;;;;;;;68.43;36.75;;;3.90;78.00;;;;;;5034118;28;20570;-72
2021/01/01 05:37:28;;;;;;;70.60;38.03;;;3.80;81.20;;;;;;5034039;28;20383;-72
2021/01/01 05:40:01;;;;;;;69.60;37.35;;;3.80;82.60;;;;;;5015772;28;20387;-72
2021/01/01 05:42:26;;;;;;;69.40;36.80;;;3.90;81.40;;;;;;5033722;28;20402;-71
2021/01/01 05:44:52;;;;;;;64.13;36.20;;;3.90;81.00;;;;;;5033959;28;20448;-73
2021/01/01 05:47:17;;;;;;;65.80;36.38;;;4.00;80.10;;;;;;5033755;28;20390;-72
2021/01/01 05:49:43;;;;;;;67.10;37.55;;;4.00;79.20;;;;;;5033554;28;20391;-74
2021/01/01 05:52:21;;;;;;;65.55;36.50;;;4.10;77.80;;;;;;5033643;28;20738;-72
2021/01/01 05:55:04;;;;;;;61.67;35.03;;;4.20;77.70;;;;;;5033599;28;20755;-71
2021/01/01 05:57:38;;;;;;;65.22;36.63;;;4.30;74.40;;;;;;5015921;28;20483;-72
2021/01/01 06:00:08;;;;;;;67.55;37.72;;;4.20;73.60;;;;;;5033274;28;20402;-74
2021/01/01 06:02:40;;;;;;;72.32;39.42;;;4.00;74.70;;;;;;5015789;28;20411;-72
2021/01/01 06:05:07;;;;;;;72.00;38.53;;;4.10;74.50;;;;;;5033292;28;20391;-72
2021/01/01 06:07:36;;;;;;;66.38;37.40;;;4.00;74.90;;;;;;5033613;28;20748;-73
2021/01/01 06:10:04;;;;;;;70.70;37.65;;;4.30;74.60;;;;;;5033036;28;20878;-72
2021/01/01 06:12:34;;;;;;;69.43;37.78;;;4.30;71.90;;;;;;5033469;28;20445;-73
2021/01/01 06:15:00;;;;;;;70.28;37.55;;;4.40;71.80;;;;;;5034149;28;20388;-73
2021/01/01 06:17:34;;;;;;;73.17;40.23;;;4.40;72.80;;;;;;5034391;28;20423;-73
2021/01/01 06:19:59;;;;;;;69.22;39.10;;;4.50;71.20;;;;;;5033802;28;20395;-73
2021/01/01 06:22:27;;;;;;;80.47;42.03;;;4.40;68.70;;;;;;5034430;28;20418;-72
2021/01/01 06:25:00;;;;;;;83.10;45.92;;;4.10;72.50;;;;;;5034554;28;20736;-74
2021/01/01 06:27:32;;;;;;;83.18;44.42;;;4.00;73.90;;;;;;5034507;28;20418;-72
2021/01/01 06:30:08;;;;;;;88.15;47.05;;;3.90;75.20;;;;;;5034014;28;20387;-73
2021/01/01 06:32:34;;;;;;;87.47;46.60;;;3.80;75.70;;;;;;5034471;28;20881;-72
2021/01/01 06:35:21;;;;;;;83.90;46.20;;;3.90;76.40;;;;;;5034485;28;20481;-73
2021/01/01 06:37:56;;;;;;;92.93;48.38;;;3.80;76.60;;;;;;5034199;28;20410;-73
2021/01/01 06:40:22;;;;;;;90.90;48.03;;;3.70;78.10;;;;;;5033891;28;20929;-72
2021/01/01 06:43:04;;;;;;;94.40;48.70;;;3.70;79.10;;;;;;5034293;28;20440;-74
2021/01/01 06:45:41;;;;;;;94.50;48.93;;;3.70;79.60;;;;;;5034323;28;20395;-72
2021/01/01 06:48:13;;;;;;;91.13;48.05;;;3.70;79.20;;;;;;5034921;28;20390;-73
2021/01/01 06:50:43;;;;;;;88.97;49.10;;;3.70;80.00;;;;;;5033929;28;20383;-73
2021/01/01 06:53:14;;;;;;;90.03;48.42;;;3.80;79.90;;;;;;5034100;28;20406;-73
2021/01/01 06:55:47;;;;;;;86.25;47.88;;;3.80;78.30;;;;;;5034384;28;20760;-75
2021/01/01 06:58:14;;;;;;;100.47;50.35;;;3.90;78.30;;;;;;5034391;28;20466;-74
2021/01/01 07:00:49;;;;;;;101.13;51.40;;;3.80;78.50;;;;;;5034231;28;20398;-72
2021/01/01 07:05:53;;;;;;;98.45;51.58;;;3.80;80.00;;;;;;5033864;28;20379;-72
2021/01/01 07:08:43;;;;;;;97.83;49.70;;;3.80;79.10;;;;;;5033629;28;20460;-72
2021/01/01 07:11:09;;;;;;;98.73;51.73;;;3.70;79.80;;;;;;5033423;28;20835;-74
2021/01/01 07:13:52;;;;;;;104.28;52.70;;;3.60;80.90;;;;;;5033368;28;20398;-71
2021/01/01 07:16:19;;;;;;;110.60;55.40;;;3.80;79.70;;;;;;5033291;28;20426;-73
2021/01/01 07:18:45;;;;;;;101.82;52.58;;;3.90;77.70;;;;;;5032848;28;20399;-72
2021/01/01 07:21:15;;;;;;;101.73;54.17;;;3.80;76.90;;;;;;5032949;28;20562;-74
2021/01/01 07:23:42;;;;;;;110.53;56.87;;;3.80;78.00;;;;;;5032812;28;20452;-71
2021/01/01 07:26:08;;;;;;;109.95;55.65;;;3.70;78.50;;;;;;5015223;28;20445;-74
2021/01/01 07:28:34;;;;;;;115.50;59.60;;;3.70;80.60;;;;;;5032777;28;20867;-70
2021/01/01 07:31:00;;;;;;;108.80;55.80;;;3.70;80.30;;;;;;5032664;28;20379;-72
2021/01/01 07:33:30;;;;;;;121.00;59.23;;;3.70;81.10;;;;;;5033257;28;20394;-73
2021/01/01 07:36:02;;;;;;;123.43;62.80;;;3.60;81.90;;;;;;5033156;28;20927;-74
2021/01/01 07:38:30;;;;;;;119.38;59.80;;;3.50;83.00;;;;;;5033180;28;20488;-74
2021/01/01 07:40:56;;;;;;;112.78;59.17;;;3.70;82.00;;;;;;5032674;28;20780;-73
2021/01/01 07:43:22;;;;;;;118.72;59.83;;;3.80;80.50;;;;;;5015017;28;20410;-73
2021/01/01 07:45:48;;;;;;;118.13;62.40;;;3.70;80.50;;;;;;5032945;28;20861;-73
2021/01/01 07:48:14;;;;;;;127.00;61.92;;;3.70;82.70;;;;;;5033019;28;20494;-72
2021/01/01 07:50:40;;;;;;;123.32;63.33;;;3.70;81.70;;;;;;5032691;28;20952;-73
2021/01/01 07:53:10;;;;;;;128.35;64.10;;;3.70;80.40;;;;;;5032674;28;20431;-72
2021/01/01 07:55:37;;;;;;;120.97;62.67;;;3.80;79.00;;;;;;5032657;28;20465;-73
2021/01/01 07:58:14;;;;;;;126.25;63.22;;;3.80;78.30;;;;;;5032626;28;20735;-72
2021/01/01 08:00:50;;;;;;;128.30;62.38;;;3.80;79.40;;;;;;5031636;28;20866;-73
2021/01/01 08:03:16;;;;;;;128.83;64.27;;;3.80;79.40;;;;;;5031083;28;20501;-72
2021/01/01 08:05:45;;;;;;;127.38;64.40;;;3.80;79.70;;;;;;5031142;28;20943;-72
2021/01/01 08:08:11;;;;;;;127.38;63.45;;;3.90;78.30;;;;;;5031110;28;20394;-74
2021/01/01 08:10:37;;;;;;;130.38;63.85;;;3.90;77.90;;;;;;5013353;28;20750;-74
2021/01/01 08:13:02;;;;;;;121.37;62.90;;;3.90;77.20;;;;;;5011651;28;20380;-73
2021/01/01 08:15:31;;;;;;;120.90;62.83;;;3.90;77.70;;;;;;5011303;28;20392;-72
2021/01/01 08:18:10;;;;;;;124.38;62.72;;;4.00;76.70;;;;;;5017789;28;20383;-73
2021/01/01 08:20:37;;;;;;;118.00;62.95;;;4.00;76.50;;;;;;5031095;28;20402;-73
2021/01/01 08:23:07;;;;;;;123.90;61.27;;;3.90;77.00;;;;;;5030931;28;20403;-73
2021/01/01 08:25:34;;;;;;;118.13;63.05;;;3.90;78.20;;;;;;5030945;28;20379;-73
2021/01/01 08:28:01;;;;;;;128.35;64.80;;;4.00;78.60;;;;;;5030922;28;20459;-73
2021/01/01 08:30:27;;;;;;;132.40;64.38;;;4.00;78.60;;;;;;5030519;28;20994;-73
2021/01/01 08:32:53;;;;;;;124.23;63.90;;;4.20;77.60;;;;;;5013091;28;20485;-72
2021/01/01 08:35:19;;;;;;;123.20;63.55;;;4.30;73.00;;;;;;5030356;28;20407;-73
2021/01/01 08:37:45;;;;;;;127.65;64.60;;;4.30;71.40;;;;;;5030300;28;20387;-73
2021/01/01 08:40:11;;;;;;;127.47;64.05;;;4.30;71.70;;;;;;5030506;28;20403;-72
2021/01/01 08:42:39;;;;;;;124.13;64.80;;;4.50;70.40;;;;;;5030732;28;20439;-72
2021/01/01 08:45:11;;;;;;;134.50;64.50;;;4.50;69.60;;;;;;5030499;28;20409;-72
2021/01/01 08:47:41;;;;;;;121.45;64.00;;;4.50;69.30;;;;;;5030829;28;20792;-72
2021/01/01 08:50:20;;;;;;;125.28;63.85;;;4.50;71.00;;;;;;5030178;28;20534;-73
2021/01/01 08:52:46;;;;;;;125.77;64.60;;;4.50;69.60;;;;;;5030590;28;20427;-71
2021/01/01 08:55:13;;;;;;;126.38;64.78;;;4.40;70.70;;;;;;5030333;28;20391;-72
2021/01/01 08:57:39;;;;;;;123.00;63.53;;;4.40;71.40;;;;;;5030419;28;20391;-73
2021/01/01 09:00:06;;;;;;;128.93;63.37;;;4.60;69.30;;;;;;5029953;28;20872;-73
2021/01/01 09:02:33;;;;;;;120.10;63.72;;;4.60;68.10;;;;;;5030417;28;20402;-73
2021/01/01 09:05:04;;;;;;;116.57;60.70;;;4.70;67.10;;;;;;5030517;28;20881;-73
2021/01/01 09:07:30;;;;;;;131.32;61.78;;;4.80;66.00;;;;;;5030439;28;20391;-73
2021/01/01 09:09:55;;;;;;;128.03;63.33;;;4.60;67.10;;;;;;5031767;28;20473;-73
2021/01/01 09:12:22;;;;;;;123.95;61.97;;;4.60;68.20;;;;;;5031973;28;20536;-73
2021/01/01 09:14:53;;;;;;;125.90;64.60;;;4.60;69.30;;;;;;5032161;28;20391;-74
2021/01/01 09:17:20;;;;;;;124.27;62.77;;;4.60;69.20;;;;;;5032400;28;20387;-74
2021/01/01 09:19:46;;;;;;;123.70;62.95;;;4.70;68.40;;;;;;5031370;28;20387;-72
2021/01/01 09:22:21;;;;;;;124.28;62.22;;;4.60;69.20;;;;;;5031872;28;20398;-73
2021/01/01 09:24:47;;;;;;;126.15;60.78;;;4.70;69.60;;;;;;5032265;28;20387;-72
2021/01/01 09:27:14;;;;;;;117.30;59.58;;;4.70;68.20;;;;;;5032095;28;20387;-73
2021/01/01 09:29:39;;;;;;;116.80;60.53;;;4.80;66.80;;;;;;5031760;28;20371;-74
2021/01/01 09:32:07;;;;;;;121.60;59.80;;;4.80;67.10;;;;;;5032143;28;20385;-73
2021/01/01 09:34:33;;;;;;;111.97;59.90;;;4.90;65.40;;;;;;5031658;28;20387;-74
2021/01/01 09:37:06;;;;;;;111.45;58.55;;;4.90;66.80;;;;;;5031867;28;20402;-73
2021/01/01 09:39:31;;;;;;;115.03;58.60;;;5.00;65.30;;;;;;5031503;28;20386;-74
2021/01/01 09:41:57;;;;;;;116.40;58.20;;;4.90;66.20;;;;;;5031463;28;20411;-73
2021/01/01 09:44:22;;;;;;;114.22;58.42;;;5.00;65.70;;;;;;5031261;28;20851;-72
2021/01/01 09:46:48;;;;;;;104.88;55.33;;;5.10;64.70;;;;;;5031587;28;20391;-74
2021/01/01 09:49:13;;;;;;;103.70;53.25;;;5.20;63.80;;;;;;5034563;28;20724;-74
2021/01/01 09:51:39;;;;;;;100.80;51.30;;;5.30;62.10;;;;;;5017315;28;20399;-73
2021/01/01 09:54:05;;;;;;;105.63;54.45;;;5.40;59.90;;;;;;5034831;28;20384;-74
2021/01/01 09:56:32;;;;;;;98.00;51.72;;;5.30;60.80;;;;;;5035072;28;20383;-72
2021/01/01 09:58:58;;;;;;;96.90;52.08;;;5.20;61.60;;;;;;5034591;28;20435;-72
2021/01/01 10:01:23;;;;;;;93.77;49.47;;;5.30;62.20;;;;;;5034076;28;20423;-72
2021/01/01 10:03:49;;;;;;;95.33;49.90;;;5.20;61.40;;;;;;5034735;28;20388;-71
2021/01/01 10:06:14;;;;;;;96.17;51.60;;;5.30;61.60;;;;;;5034323;28;20386;-74
2021/01/01 10:08:40;;;;;;;103.17;52.67;;;5.30;60.80;;;;;;5034194;28;20383;-75
2021/01/01 10:11:05;;;;;;;95.40;51.37;;;5.40;60.60;;;;;;5034531;28;20407;-72
2021/01/01 10:13:31;;;;;;;93.30;49.20;;;5.50;62.00;;;;;;5034577;28;20521;-71
2021/01/01 10:15:56;;;;;;;92.63;48.60;;;5.50;60.80;;;;;;5034613;28;20410;-73
2021/01/01 10:18:22;;;;;;;90.30;48.03;;;5.70;58.10;;;;;;5034658;28;20379;-74
2021/01/01 10:20:48;;;;;;;91.22;49.05;;;5.60;58.30;;;;;;5034476;28;20410;-72
2021/01/01 10:23:14;;;;;;;94.22;49.60;;;5.60;58.60;;;;;;5034146;28;20418;-72
2021/01/01 10:25:39;;;;;;;92.45;49.28;;;5.60;59.10;;;;;;5034359;28;20752;-73
2021/01/01 10:28:05;;;;;;;94.90;48.92;;;5.70;59.70;;;;;;5033967;28;20387;-74
2021/01/01 10:30:30;;;;;;;94.90;49.53;;;5.70;59.90;;;;;;5033742;28;20725;-72
2021/01/01 10:32:57;;;;;;;90.45;47.92;;;5.80;58.70;;;;;;5034701;28;20383;-73
2021/01/01 10:35:23;;;;;;;84.70;46.47;;;5.80;58.10;;;;;;5034540;28;20439;-73
2021/01/01 10:37:51;;;;;;;88.67;45.47;;;5.80;57.50;;;;;;5034597;28;20442;-73
2021/01/01 10:40:17;;;;;;;85.50;46.80;;;5.90;56.40;;;;;;5033819;28;20442;-74
2021/01/01 10:42:42;;;;;;;91.67;48.30;;;6.00;56.00;;;;;;5034325;28;20411;-72
2021/01/01 10:45:08;;;;;;;85.67;48.50;;;5.90;56.30;;;;;;5034307;28;20387;-72
2021/01/01 10:47:34;;;;;;;96.70;48.58;;;6.00;55.50;;;;;;5033626;28;20722;-73
2021/01/01 10:49:59;;;;;;;95.70;47.67;;;6.00;55.80;;;;;;5033551;28;20386;-73
2021/01/01 10:52:25;;;;;;;91.78;47.50;;;6.10;55.60;;;;;;5034265;28;20410;-72
2021/01/01 10:54:50;;;;;;;85.25;46.90;;;6.00;55.40;;;;;;5033804;28;20391;-73
2021/01/01 10:57:16;;;;;;;88.97;46.28;;;6.00;56.30;;;;;;5033336;28;20401;-74
2021/01/01 10:59:41;;;;;;;85.55;44.90;;;6.10;56.60;;;;;;5032219;28;20459;-73
2021/01/01 11:02:07;;;;;;;85.18;46.22;;;6.10;55.90;;;;;;5032389;28;20414;-73
2021/01/01 11:04:33;;;;;;;79.90;45.72;;;6.20;54.80;;;;;;5032667;28;20383;-72
2021/01/01 11:06:58;;;;;;;87.25;45.35;;;6.20;54.70;;;;;;5032169;28;20391;-73
2021/01/01 11:09:24;;;;;;;83.50;45.53;;;6.20;55.50;;;;;;5032019;28;20797;-73
2021/01/01 11:11:54;;;;;;;74.70;41.47;;;6.20;55.60;;;;;;5032232;28;20383;-72
2021/01/01 11:14:38;;;;;;;76.72;43.25;;;6.20;53.70;;;;;;5032063;28;20819;-73
2021/01/01 12:25:29;;;;;;;68.60;37.03;;;5.70;57.20;;;;;;5034782;28;20872;-74
2021/01/01 12:27:59;;;;;;;65.38;35.25;;;5.50;58.00;;;;;;5017499;28;20391;-72
2021/01/01 12:30:26;;;;;;;63.75;35.38;;;5.50;59.10;;;;;;5016796;28;20429;-72
2021/01/01 12:32:53;;;;;;;63.95;35.22;;;5.40;59.40;;;;;;5034949;28;20748;-73
2021/01/01 12:35:21;;;;;;;70.40;37.03;;;5.40;59.50;;;;;;5034196;28;20387;-72
2021/01/01 12:37:58;;;;;;;67.88;35.47;;;5.40;61.20;;;;;;5034103;28;20757;-74
2021/01/01 12:40:24;;;;;;;68.82;35.47;;;5.40;60.10;;;;;;5033994;28;20389;-73
2021/01/01 12:42:49;;;;;;;73.83;38.90;;;5.40;60.30;;;;;;5034171;28;20400;-73
2021/01/01 12:45:15;;;;;;;68.60;38.07;;;5.40;60.70;;;;;;5034057;28;20473;-73
2021/01/01 12:47:41;;;;;;;79.30;40.15;;;5.30;60.80;;;;;;5034285;28;20379;-73
2021/01/01 12:50:07;;;;;;;76.57;40.10;;;5.30;61.80;;;;;;5033900;28;20418;-73
2021/01/01 12:52:32;;;;;;;82.05;40.67;;;5.20;63.00;;;;;;5034480;28;20406;-73
2021/01/01 12:54:57;;;;;;;75.00;40.37;;;5.30;61.70;;;;;;5016662;28;20391;-72
2021/01/01 12:57:24;;;;;;;77.27;40.80;;;5.30;61.30;;;;;;5033704;28;20749;-73
2021/01/01 12:59:50;;;;;;;81.13;41.20;;;5.20;62.70;;;;;;5033030;28;20469;-73
2021/01/01 13:02:16;;;;;;;81.90;41.13;;;5.30;64.50;;;;;;5015566;28;20930;-72
2021/01/01 13:04:41;;;;;;;84.88;42.00;;;5.20;63.20;;;;;;5033553;28;20394;-73
2021/01/01 13:07:07;;;;;;;88.88;43.78;;;5.20;63.70;;;;;;5033613;28;20492;-72
2021/01/01 13:09:32;;;;;;;81.15;42.22;;;5.40;63.60;;;;;;5033018;28;20449;-72
2021/01/01 13:11:58;;;;;;;73.53;38.77;;;5.50;64.40;;;;;;5030687;28;20387;-73
2021/01/01 13:14:23;;;;;;;73.70;37.50;;;5.80;61.10;;;;;;5012066;28;20880;-72
2021/01/01 13:16:49;;;;;;;74.77;37.50;;;5.80;60.20;;;;;;5030030;28;20752;-73
2021/01/01 13:19:14;;;;;;;71.07;38.63;;;5.70;60.70;;;;;;5029877;28;20396;-74
2021/01/01 13:21:42;;;;;;;62.70;33.90;;;5.40;62.50;;;;;;5030085;28;20388;-72
2021/01/01 13:24:07;;;;;;;57.35;31.85;;;5.20;63.80;;;;;;5033822;28;20411;-72
2021/01/01 13:26:34;;;;;;;60.83;32.97;;;5.10;64.30;;;;;;5033801;28;20472;-72
2021/01/01 13:29:00;;;;;;;55.37;30.00;;;5.00;65.10;;;;;;5036647;28;20726;-73
2021/01/01 13:31:39;;;;;;;51.15;27.00;;;5.00;65.20;;;;;;5036383;28;20436;-74
2021/01/01 13:34:06;;;;;;;49.13;26.25;;;5.00;62.70;;;;;;5020809;28;20395;-73
2021/01/01 13:36:32;;;;;;;49.05;27.27;;;5.00;63.20;;;;;;5035895;28;20387;-73
2021/01/01 13:38:58;;;;;;;48.55;27.50;;;5.00;64.10;;;;;;5035047;28;20470;-74
2021/01/01 13:41:24;;;;;;;47.97;27.48;;;4.90;64.40;;;;;;5035723;28;20418;-73
2021/01/01 13:43:51;;;;;;;51.77;26.37;;;4.80;66.00;;;;;;5035528;28;20895;-75
2021/01/01 13:46:29;;;;;;;52.80;27.58;;;4.90;64.50;;;;;;5035441;28;20391;-73